Green Valley, AZ (85614)

11:35 PM MST on October 20, 2014 (GMT -0700)
La Canada Desert Homes I | Change Station
CLOSE
Current Station
Personal Weather Station
Location: Green Valley, AZ
Elevation: 2930 ft
Nearby Weather Stations

Elev 2930 ft 31.86 °N, 111.00 °W | Updated 3 minutes ago

Clear
Clear
61.5 °F
Feels Like 61.5 °F
N
3.7
Wind Variable Wind from SSE

Today
High -- | Low -- °F
--% Chance of Precip.
Yesterday
High -- | Low -- °F
Precip. -- in
6:31 AM 5:45 PM
Waning Crescent, 7% visible
Pressure 29.85 in
Visibility 10.0 miles
Clouds Clear
Dew Point 52 °F
Humidity 72%
Rainfall 0.00 in
Snow Depth Not available.
UV 0 out of 12
Pollen 5.20 out of 12
Air Quality Not available.
Flu Activity No Activity
METAR KTUS 210553Z 12006KT 10SM CLR 21/11 A2996 RMK AO2 SLP106 T02110106 10283 20211 51009

More Conditions Fewer Conditions

Pressure 29.85 in
Visibility 10.0 miles
Clouds Clear
Dew Point 52 °F
Humidity 72%
Rainfall 0.00 in
Snow Depth Not available.
UV 0 out of 12
Pollen 5.20 out of 12
Air Quality Not available.
Flu Activity No Activity
METAR KTUS 210553Z 12006KT 10SM CLR 21/11 A2996 RMK AO2 SLP106 T02110106 10283 20211 51009

More Conditions Fewer Conditions

10-Day Weather Forecast

Almanac

Astronomy

Oct. 20, 2014 Rise Set
Actual Time 6:31 AM MST 5:45 PM MST
Civil Twilight 6:06 AM MST 6:10 PM MST
Nautical Twilight 5:37 AM MST 6:39 PM MST
Astronomical Twilight 5:09 AM MST 7:07 PM MST
Moon 3:33 AM MST (10/20) 4:01 PM MST (10/20)
Length of Visible Light 12h 04m
Length of Day
11h 14m
Tomorrow will be 1m 50s shorter.
Waning Crescent, 7% of the Moon is Illuminated
Oct 21
Waning Crescent
Oct 23
New
Oct 30
First Quarter
Nov 6
Full
Nov 14
Last Quarter

Community

WunderPhotos

Upload Photos

1,763,617 photos uploaded!

Nearby

Snow Depth

Station Depth Elevation
Workman Creek 0 in 6900 ft
Wildcat 0 in 7850 ft
Hannagan Meadows 1 in 9020 ft
Beaver Head 1 in 7990 ft
Maverick Fork 1 in 9200 ft

Earthquake Activity

City Distance Mag. Time & Date
No recent earthquake activity has been reported nearby.
Minimum magnitude displayed is 2.5.

Coastal Water Temperatures

Place Temperature
No Stations Reporting

Nearby Weather Stations